createdAt,value
2023-12-12T00:02:00.429Z,101476.97
2023-12-12T00:04:28.112Z,101473.66
2023-12-12T00:06:55.493Z,101480.22
2023-12-12T00:09:22.724Z,101470.97
2023-12-12T00:11:50.664Z,101463.44
2023-12-12T00:14:17.976Z,101463.22
2023-12-12T00:16:45.290Z,101472.78
2023-12-12T00:19:12.631Z,101469.25
2023-12-12T00:21:39.906Z,101468.72
2023-12-12T00:24:07.984Z,101464.69
2023-12-12T00:26:35.224Z,101470.72
2023-12-12T00:29:02.641Z,101470.19
2023-12-12T00:31:30.010Z,101469.66
2023-12-12T00:33:57.685Z,101465.31
2023-12-12T00:36:24.973Z,101474.31
2023-12-12T00:38:52.411Z,101477.84
2023-12-12T00:41:19.669Z,101478.66
2023-12-12T00:43:47.074Z,101466.94
2023-12-12T00:46:14.570Z,101480.00
2023-12-12T00:48:42.167Z,101470.19
2023-12-12T00:51:10.425Z,101477.34
2023-12-12T00:53:37.900Z,101478.16
2023-12-12T00:56:05.547Z,101463.97
2023-12-12T00:58:33.060Z,101459.09
2023-12-12T01:01:00.488Z,101455.06
2023-12-12T01:03:28.698Z,101455.88
2023-12-12T01:05:56.010Z,101464.34
2023-12-12T01:08:23.420Z,101460.78
2023-12-12T01:10:50.656Z,101453.72
2023-12-12T01:13:18.084Z,101451.81
2023-12-12T01:15:45.300Z,101451.81
2023-12-12T01:18:12.645Z,101459.91
2023-12-12T01:20:40.017Z,101455.28
2023-12-12T01:23:07.354Z,101458.03
2023-12-12T01:25:34.990Z,101453.66
2023-12-12T01:28:02.306Z,101451.22
2023-12-12T01:30:29.913Z,101448.53
2023-12-12T01:32:57.285Z,101444.78
2023-12-12T01:35:24.571Z,101434.19
2023-12-12T01:37:52.019Z,101423.28
2023-12-12T01:40:19.427Z,101420.47
2023-12-12T01:42:46.727Z,101418.78
2023-12-12T01:45:15.989Z,101421.16
2023-12-12T01:47:44.707Z,101421.34
2023-12-12T01:50:12.413Z,101409.03
2023-12-12T01:52:39.956Z,101403.03
2023-12-12T01:55:07.873Z,101408.59
2023-12-12T01:57:35.314Z,101399.34
2023-12-12T02:00:03.674Z,101394.72
2023-12-12T02:02:39.878Z,101394.66
2023-12-12T02:05:07.414Z,101383.69
2023-12-12T02:07:37.155Z,101389.22
2023-12-12T02:10:04.913Z,101386.88
2023-12-12T02:12:33.498Z,101390.31
2023-12-12T02:15:00.883Z,101383.47
2023-12-12T02:17:28.596Z,101382.34
2023-12-12T02:19:56.016Z,101382.44
2023-12-12T02:22:23.424Z,101385.22
2023-12-12T02:24:50.857Z,101380.13
2023-12-12T02:27:18.197Z,101383.75
2023-12-12T02:29:45.729Z,101385.69
2023-12-12T02:32:13.049Z,101380.81
2023-12-12T02:34:40.469Z,101375.72
2023-12-12T02:37:07.724Z,101382.88
2023-12-12T02:39:35.098Z,101381.81
2023-12-12T02:42:02.463Z,101373.41
2023-12-12T02:44:29.772Z,101370.47
2023-12-12T02:46:57.109Z,101371.28
2023-12-12T02:49:24.577Z,101375.09
2023-12-12T02:51:52.211Z,101372.97
2023-12-12T02:54:19.594Z,101367.19
2023-12-12T02:56:47.107Z,101367.38
2023-12-12T02:59:14.438Z,101367.69
2023-12-12T03:01:41.929Z,101363.31
2023-12-12T03:04:09.538Z,101357.84
2023-12-12T03:06:36.914Z,101352.94
2023-12-12T03:09:04.363Z,101343.06
2023-12-12T03:11:32.127Z,101343.06
2023-12-12T03:13:59.540Z,101324.81
2023-12-12T03:16:27.145Z,101312.34
2023-12-12T03:18:54.762Z,101312.19
2023-12-12T03:21:22.228Z,101313.31
2023-12-12T03:23:49.606Z,101315.38
2023-12-12T03:26:16.926Z,101320.16
2023-12-12T03:28:44.491Z,101320.06
2023-12-12T03:31:11.881Z,101313.63
2023-12-12T03:33:39.528Z,101324.03
2023-12-12T03:36:10.669Z,101315.13
2023-12-12T03:38:37.985Z,101318.13
2023-12-12T03:41:05.406Z,101310.75
2023-12-12T03:43:32.757Z,101310.47
2023-12-12T03:46:00.093Z,101313.44
2023-12-12T03:48:27.701Z,101307.59
2023-12-12T03:50:55.766Z,101316.03
2023-12-12T03:53:24.438Z,101307.47
2023-12-12T03:55:51.678Z,101306.47
2023-12-12T03:58:19.090Z,101303.78
2023-12-12T04:00:46.517Z,101304.00
2023-12-12T04:03:13.914Z,101303.09
2023-12-12T04:05:41.730Z,101307.66
2023-12-12T04:08:09.939Z,101296.13
2023-12-12T04:10:37.442Z,101305.31
2023-12-12T04:13:04.999Z,101308.25
2023-12-12T04:15:32.712Z,101318.19
2023-12-12T04:18:00.128Z,101322.94
2023-12-12T04:20:27.691Z,101332.84
2023-12-12T04:22:55.050Z,101333.16
2023-12-12T04:25:22.753Z,101338.22
2023-12-12T04:27:50.464Z,101339.50
2023-12-12T04:30:18.136Z,101342.31
2023-12-12T04:32:45.477Z,101346.16
2023-12-12T04:35:12.884Z,101352.72
2023-12-12T04:37:40.362Z,101356.66
2023-12-12T04:40:08.712Z,101357.97
2023-12-12T04:42:37.492Z,101353.44
2023-12-12T04:45:05.413Z,101339.16
2023-12-12T04:47:33.274Z,101351.31
2023-12-12T04:50:01.112Z,101353.75
2023-12-12T04:52:29.415Z,101361.06
2023-12-12T04:54:56.772Z,101362.06
2023-12-12T04:57:24.240Z,101362.34
2023-12-12T04:59:51.595Z,101363.47
2023-12-12T05:02:18.983Z,101355.19
2023-12-12T05:04:46.211Z,101356.81
2023-12-12T05:07:13.815Z,101350.63
2023-12-12T05:09:41.718Z,101348.63
2023-12-12T05:12:09.691Z,101354.09
2023-12-12T05:14:36.933Z,101358.69
2023-12-12T05:17:10.279Z,101368.38
2023-12-12T05:19:38.783Z,101361.28
2023-12-12T05:22:06.410Z,101364.63
2023-12-12T05:24:34.471Z,101359.75
2023-12-12T05:27:01.703Z,101365.94
2023-12-12T05:29:29.661Z,101363.28
2023-12-12T05:31:57.055Z,101357.75
2023-12-12T05:34:24.550Z,101364.13
2023-12-12T05:36:52.054Z,101354.81
2023-12-12T05:39:19.364Z,101356.22
2023-12-12T05:41:49.911Z,101353.81
2023-12-12T05:44:17.593Z,101346.09
2023-12-12T05:46:45.051Z,101350.88
2023-12-12T05:49:12.438Z,101345.41
2023-12-12T05:51:41.348Z,101342.16
2023-12-12T05:54:13.703Z,101353.09
2023-12-12T05:56:44.723Z,101361.63
2023-12-12T05:59:15.908Z,101363.03
2023-12-12T06:01:43.627Z,101363.41
2023-12-12T06:04:14.822Z,101354.81
2023-12-12T06:06:44.183Z,101360.06
2023-12-12T06:09:13.162Z,101356.22
2023-12-12T06:11:43.335Z,101354.00
2023-12-12T06:14:11.333Z,101363.00
2023-12-12T06:16:39.721Z,101367.56
2023-12-12T06:19:07.556Z,101365.13
2023-12-12T06:21:35.477Z,101360.97
2023-12-12T06:24:04.067Z,101363.69
2023-12-12T06:26:32.462Z,101359.75
2023-12-12T06:29:00.102Z,101367.16
2023-12-12T06:31:27.838Z,101375.69
2023-12-12T06:33:55.487Z,101372.03
2023-12-12T06:36:23.621Z,101367.09
2023-12-12T06:38:50.867Z,101364.34
2023-12-12T06:41:18.484Z,101363.94
2023-12-12T06:43:45.807Z,101366.88
2023-12-12T06:46:13.272Z,101374.88
2023-12-12T06:48:40.631Z,101373.56
2023-12-12T06:51:08.201Z,101382.66
2023-12-12T06:53:35.449Z,101381.53
2023-12-12T06:56:02.934Z,101381.34
2023-12-12T06:58:30.798Z,101392.28
2023-12-12T07:00:58.921Z,101400.66
2023-12-12T07:03:26.301Z,101394.28
2023-12-12T07:05:54.086Z,101408.16
2023-12-12T07:08:23.434Z,101410.22
2023-12-12T07:10:51.063Z,101419.03
2023-12-12T07:13:19.675Z,101419.63
2023-12-12T07:15:47.003Z,101418.03
2023-12-12T07:18:15.792Z,101410.66
2023-12-12T07:20:43.253Z,101415.50
2023-12-12T07:23:10.662Z,101419.13
2023-12-12T07:25:39.241Z,101423.38
2023-12-12T07:28:06.863Z,101425.25
2023-12-12T07:30:34.191Z,101416.63
2023-12-12T07:33:01.664Z,101415.72
2023-12-12T07:35:29.358Z,101412.22
2023-12-12T07:37:57.992Z,101424.69
2023-12-12T07:40:26.806Z,101432.03
2023-12-12T07:42:54.306Z,101421.47
2023-12-12T07:45:21.622Z,101435.41
2023-12-12T07:47:49.224Z,101435.59
2023-12-12T07:50:20.757Z,101436.31
2023-12-12T07:52:48.966Z,101440.56
2023-12-12T07:55:16.479Z,101435.44
2023-12-12T07:57:45.344Z,101438.41
2023-12-12T08:00:13.979Z,101441.69
2023-12-12T08:02:41.931Z,101445.28
2023-12-12T08:05:09.403Z,101441.47
2023-12-12T08:07:37.321Z,101440.34
2023-12-12T08:10:06.856Z,101438.09
2023-12-12T08:12:35.561Z,101443.59
2023-12-12T08:15:05.196Z,101450.03
2023-12-12T08:17:33.079Z,101441.50
2023-12-12T08:20:00.701Z,101437.00
2023-12-12T08:22:28.362Z,101441.56
2023-12-12T08:24:56.254Z,101446.78
2023-12-12T08:27:23.821Z,101437.44
2023-12-12T08:29:51.088Z,101436.06
2023-12-12T08:32:18.528Z,101441.53
2023-12-12T08:34:46.292Z,101452.22
2023-12-12T08:37:14.689Z,101448.19
2023-12-12T08:39:43.132Z,101452.56
2023-12-12T08:42:11.772Z,101454.81
2023-12-12T08:44:41.897Z,101445.78
2023-12-12T08:47:09.236Z,101450.63
2023-12-12T08:49:39.149Z,101453.03
2023-12-12T08:52:09.712Z,101465.00
2023-12-12T08:54:37.487Z,101460.28
2023-12-12T08:57:07.576Z,101457.25
2023-12-12T08:59:35.442Z,101459.44
2023-12-12T09:02:02.914Z,101461.69
2023-12-12T09:04:30.276Z,101455.31
2023-12-12T09:06:57.664Z,101453.34
2023-12-12T09:09:26.142Z,101463.69
2023-12-12T09:11:53.507Z,101456.81
2023-12-12T09:14:21.327Z,101458.09
2023-12-12T09:16:48.705Z,101451.56
2023-12-12T09:19:18.239Z,101443.66
2023-12-12T09:21:45.721Z,101455.97
2023-12-12T09:24:14.522Z,101458.38
2023-12-12T09:26:42.065Z,101464.84
2023-12-12T09:29:09.400Z,101462.41
2023-12-12T09:31:37.044Z,101459.25
2023-12-12T09:34:04.938Z,101462.06
2023-12-12T09:36:33.206Z,101460.81
2023-12-12T09:39:00.621Z,101448.97
2023-12-12T09:41:27.982Z,101442.75
2023-12-12T09:43:55.247Z,101438.09
2023-12-12T09:46:24.567Z,101437.28
2023-12-12T09:48:53.698Z,101445.34
2023-12-12T09:51:22.873Z,101435.19
2023-12-12T09:53:51.217Z,101436.94
2023-12-12T09:56:19.368Z,101429.84
2023-12-12T09:58:49.320Z,101425.97
2023-12-12T10:01:17.453Z,101429.28
2023-12-12T10:03:46.200Z,101414.44
2023-12-12T10:06:14.391Z,101415.94
2023-12-12T10:08:42.331Z,101416.53
2023-12-12T10:11:11.469Z,101417.09
2023-12-12T10:13:52.583Z,101406.66
2023-12-12T10:16:20.316Z,101405.97
2023-12-12T10:18:49.260Z,101408.16
2023-12-12T10:21:24.347Z,101407.88
2023-12-12T10:23:53.920Z,101397.06
2023-12-12T10:26:34.401Z,101394.84
2023-12-12T10:29:02.386Z,101390.59
2023-12-12T10:31:30.313Z,101390.38
2023-12-12T10:33:59.025Z,101388.31
2023-12-12T10:36:26.852Z,101389.22
2023-12-12T10:38:55.177Z,101376.44
2023-12-12T10:41:25.995Z,101386.00
2023-12-12T10:43:55.117Z,101377.84
2023-12-12T10:46:24.891Z,101367.50
2023-12-12T10:48:54.897Z,101364.28
2023-12-12T10:51:24.775Z,101357.59
2023-12-12T10:53:56.259Z,101351.38
2023-12-12T10:56:24.617Z,101342.75
2023-12-12T10:58:52.871Z,101339.25
2023-12-12T11:01:21.015Z,101335.91
2023-12-12T11:03:52.286Z,101328.47
2023-12-12T11:06:20.726Z,101332.00
2023-12-12T11:08:48.401Z,101323.94
2023-12-12T11:11:22.575Z,101318.09
2023-12-12T11:13:52.833Z,101324.38
2023-12-12T11:16:20.771Z,101314.53
2023-12-12T11:18:49.493Z,101310.72
2023-12-12T11:21:43.161Z,101309.56
2023-12-12T11:24:10.543Z,101311.75
2023-12-12T11:26:38.395Z,101317.81
2023-12-12T11:29:11.710Z,101299.59
2023-12-12T11:31:57.154Z,101298.47
2023-12-12T11:34:25.081Z,101301.94
2023-12-12T11:36:59.049Z,101290.19
2023-12-12T11:39:31.563Z,101280.00
2023-12-12T11:42:00.577Z,101270.91
2023-12-12T11:44:44.399Z,101273.94
2023-12-12T11:47:16.561Z,101269.19
2023-12-12T11:49:45.599Z,101262.84
2023-12-12T11:52:39.028Z,101261.94
2023-12-12T11:55:18.919Z,101261.66
2023-12-12T11:57:46.822Z,101251.00
2023-12-12T12:00:15.689Z,101247.91
2023-12-12T12:02:43.287Z,101252.56
2023-12-12T12:05:11.375Z,101258.25
2023-12-12T12:07:41.515Z,101262.63
2023-12-12T12:10:12.170Z,101252.72
2023-12-12T12:12:39.547Z,101248.31
2023-12-12T12:15:07.850Z,101246.09
2023-12-12T12:17:36.448Z,101236.84
2023-12-12T12:20:04.976Z,101248.63
2023-12-12T12:22:32.995Z,101237.84
2023-12-12T12:25:00.603Z,101237.41
2023-12-12T12:27:28.194Z,101244.25
2023-12-12T12:30:05.105Z,101245.84
2023-12-12T12:32:34.162Z,101238.41
2023-12-12T12:35:09.562Z,101233.91
2023-12-12T12:37:38.494Z,101228.75
2023-12-12T12:40:07.839Z,101229.75
2023-12-12T12:42:39.846Z,101227.63
2023-12-12T12:45:09.011Z,101228.44
2023-12-12T12:47:36.588Z,101220.06
2023-12-12T12:50:04.600Z,101226.63
2023-12-12T12:52:33.245Z,101227.94
2023-12-12T12:55:01.187Z,101226.34
2023-12-12T12:57:28.479Z,101216.88
2023-12-12T12:59:55.860Z,101227.63
2023-12-12T13:02:23.232Z,101226.34
2023-12-12T13:04:51.018Z,101226.78
2023-12-12T13:07:18.367Z,101219.72
2023-12-12T13:09:45.832Z,101225.06
2023-12-12T13:12:13.122Z,101219.78
2023-12-12T13:14:41.931Z,101218.38
2023-12-12T13:17:10.077Z,101221.84
2023-12-12T13:19:37.661Z,101221.84
2023-12-12T13:22:05.365Z,101231.03
2023-12-12T13:24:32.984Z,101221.31
2023-12-12T13:27:00.187Z,101219.28
2023-12-12T13:29:27.538Z,101221.47
2023-12-12T13:31:54.796Z,101220.03
2023-12-12T13:34:22.322Z,101212.44
2023-12-12T13:36:49.588Z,101219.06
2023-12-12T13:39:19.414Z,101230.41
2023-12-12T13:41:50.038Z,101228.25
2023-12-12T13:44:18.477Z,101229.78
2023-12-12T13:46:46.212Z,101229.69
2023-12-12T13:49:13.968Z,101227.25
2023-12-12T13:51:47.114Z,101227.97
2023-12-12T13:54:15.514Z,101224.31
2023-12-12T13:56:44.519Z,101229.72
2023-12-12T13:59:12.400Z,101225.97
2023-12-12T14:01:39.935Z,101226.91
2023-12-12T14:04:07.663Z,101221.59
2023-12-12T14:06:35.071Z,101222.53
2023-12-12T14:09:02.500Z,101231.63
2023-12-12T14:11:30.406Z,101233.81
2023-12-12T14:13:57.948Z,101225.28
2023-12-12T14:16:29.034Z,101229.41
2023-12-12T14:18:58.153Z,101220.78
2023-12-12T14:21:25.403Z,101217.13
2023-12-12T14:23:52.678Z,101226.63
2023-12-12T14:26:23.499Z,101225.97
2023-12-12T14:28:51.546Z,101224.22
2023-12-12T14:31:19.719Z,101231.44
2023-12-12T14:33:47.576Z,101223.75
2023-12-12T14:36:15.873Z,101225.44
2023-12-12T14:38:47.059Z,101225.41
2023-12-12T14:41:15.391Z,101241.81
2023-12-12T14:43:50.282Z,101235.03
2023-12-12T14:46:18.299Z,101234.91
2023-12-12T14:48:45.544Z,101236.19
2023-12-12T14:51:14.930Z,101244.44
2023-12-12T14:53:42.885Z,101239.00
2023-12-12T14:56:11.687Z,101246.78
2023-12-12T14:58:39.193Z,101247.66
2023-12-12T15:01:06.936Z,101238.78
2023-12-12T15:03:34.788Z,101232.34
2023-12-12T15:06:04.109Z,101237.88
2023-12-12T15:08:31.777Z,101238.28
2023-12-12T15:14:03.001Z,101243.72
2023-12-12T15:16:30.525Z,101234.84
2023-12-12T15:18:58.026Z,101232.50
2023-12-12T15:21:26.012Z,101241.28
2023-12-12T15:23:53.277Z,101244.75
2023-12-12T15:26:20.729Z,101250.66
2023-12-12T15:28:48.046Z,101248.44
2023-12-12T15:31:15.571Z,101247.97
2023-12-12T15:33:43.047Z,101253.66
2023-12-12T15:36:10.797Z,101255.78
2023-12-12T15:38:38.550Z,101263.09
2023-12-12T15:41:06.057Z,101252.94
2023-12-12T15:43:35.386Z,101257.16
2023-12-12T15:46:03.131Z,101255.56
2023-12-12T15:48:30.705Z,101262.50
2023-12-12T15:50:58.106Z,101265.91
2023-12-12T15:53:25.854Z,101263.97
2023-12-12T15:55:53.008Z,101253.66
2023-12-12T15:58:21.334Z,101257.88
2023-12-12T16:00:48.798Z,101260.78
2023-12-12T16:03:16.101Z,101265.81
2023-12-12T16:05:44.382Z,101254.81
2023-12-12T16:08:13.668Z,101263.22
2023-12-12T16:10:42.044Z,101250.63
2023-12-12T16:13:11.782Z,101259.84
2023-12-12T16:15:39.248Z,101262.78
2023-12-12T16:18:06.447Z,101255.81
2023-12-12T16:20:33.807Z,101258.72
2023-12-12T16:23:01.337Z,101258.06
2023-12-12T16:25:28.683Z,101252.75
2023-12-12T16:27:57.765Z,101252.44
2023-12-12T16:30:28.739Z,101255.00
2023-12-12T16:33:01.201Z,101259.84
2023-12-12T16:35:28.805Z,101265.66
2023-12-12T16:37:56.229Z,101261.94
2023-12-12T16:40:23.596Z,101257.91
2023-12-12T16:42:50.969Z,101260.47
2023-12-12T16:45:18.258Z,101257.28
2023-12-12T16:47:45.750Z,101257.28
2023-12-12T16:50:13.637Z,101259.19
2023-12-12T16:52:40.846Z,101264.34
2023-12-12T16:55:08.502Z,101253.38
2023-12-12T16:57:37.759Z,101260.16
2023-12-12T17:00:12.158Z,101265.00
2023-12-12T17:02:39.819Z,101256.78
2023-12-12T17:05:07.490Z,101270.50
2023-12-12T17:07:35.331Z,101268.38
2023-12-12T17:10:09.198Z,101265.78
2023-12-12T17:12:40.332Z,101264.53
2023-12-12T17:15:09.467Z,101268.72
2023-12-12T17:17:36.903Z,101263.06
2023-12-12T17:20:04.740Z,101276.28
2023-12-12T17:22:32.252Z,101277.41
2023-12-12T17:24:59.628Z,101278.56
2023-12-12T17:27:27.249Z,101276.75
2023-12-12T17:29:54.906Z,101280.13
2023-12-12T17:32:22.464Z,101278.03
2023-12-12T17:34:50.661Z,101274.31
2023-12-12T17:37:18.130Z,101284.31
2023-12-12T17:39:45.322Z,101274.78
2023-12-12T17:42:12.692Z,101282.22
2023-12-12T17:44:40.662Z,101281.25
2023-12-12T17:47:08.015Z,101278.50
2023-12-12T17:49:37.824Z,101283.47
2023-12-12T17:52:05.725Z,101292.84
2023-12-12T17:54:32.934Z,101291.03
2023-12-12T17:57:00.345Z,101293.59
2023-12-12T17:59:27.557Z,101291.50
2023-12-12T18:01:55.627Z,101288.59
2023-12-12T18:04:23.016Z,101292.47
2023-12-12T18:06:50.378Z,101299.88
2023-12-12T18:09:20.869Z,101295.03
2023-12-12T18:11:48.244Z,101305.19
2023-12-12T18:14:15.452Z,101315.34
2023-12-12T18:16:42.874Z,101312.91
2023-12-12T18:19:10.499Z,101308.06
2023-12-12T18:21:38.783Z,101305.31
2023-12-12T18:24:06.499Z,101310.00
2023-12-12T18:26:33.854Z,101305.47
2023-12-12T18:29:05.225Z,101301.59
2023-12-12T18:31:33.395Z,101310.78
2023-12-12T18:34:01.113Z,101310.78
2023-12-12T18:36:28.981Z,101318.50
2023-12-12T18:38:56.315Z,101319.63
2023-12-12T18:41:24.322Z,101317.47
2023-12-12T18:43:51.775Z,101316.97
2023-12-12T18:46:19.416Z,101317.31
2023-12-12T18:48:47.094Z,101309.38
2023-12-12T18:51:14.476Z,101314.34
2023-12-12T18:53:41.851Z,101320.97
2023-12-12T18:56:10.507Z,101321.59
2023-12-12T18:58:38.526Z,101318.38
2023-12-12T19:01:06.080Z,101323.88
2023-12-12T19:03:33.534Z,101320.00
2023-12-12T19:06:00.892Z,101318.38
2023-12-12T19:08:28.960Z,101310.47
2023-12-12T19:10:56.357Z,101315.13
2023-12-12T19:13:24.944Z,101308.84
2023-12-12T19:15:53.592Z,101320.63
2023-12-12T19:18:21.647Z,101302.56
2023-12-12T19:20:49.151Z,101295.47
2023-12-12T19:23:17.008Z,101302.06
2023-12-12T19:25:44.522Z,101301.09
2023-12-12T19:28:11.960Z,101298.81
2023-12-12T19:30:39.400Z,101306.56
2023-12-12T19:33:09.787Z,101306.84
2023-12-12T19:35:39.054Z,101302.00
2023-12-12T19:38:07.573Z,101300.41
2023-12-12T19:40:37.712Z,101302.34
2023-12-12T19:43:05.581Z,101293.31
2023-12-12T19:45:32.949Z,101300.09
2023-12-12T19:48:00.430Z,101305.56
2023-12-12T19:50:28.098Z,101297.38
2023-12-12T19:52:55.468Z,101299.25
2023-12-12T19:55:24.526Z,101294.91
2023-12-12T19:57:51.867Z,101301.53
2023-12-12T20:00:19.659Z,101295.91
2023-12-12T20:02:46.966Z,101289.81
2023-12-12T20:05:14.372Z,101300.47
2023-12-12T20:07:42.001Z,101292.25
2023-12-12T20:10:14.329Z,101292.34
2023-12-12T20:12:46.816Z,101284.28
2023-12-12T20:15:16.347Z,101290.88
2023-12-12T20:17:44.223Z,101291.19
2023-12-12T20:20:13.219Z,101299.41
2023-12-12T20:22:40.767Z,101300.34
2023-12-12T20:25:08.549Z,101309.50
2023-12-12T20:27:38.109Z,101299.69
2023-12-12T20:30:07.161Z,101303.72
2023-12-12T20:32:34.569Z,101301.97
2023-12-12T20:35:04.590Z,101302.00
2023-12-12T20:37:32.500Z,101308.31
2023-12-12T20:39:59.985Z,101294.41
2023-12-12T20:42:28.063Z,101292.34
2023-12-12T20:44:56.345Z,101286.34
2023-12-12T20:47:23.809Z,101281.16
2023-12-12T20:49:51.498Z,101282.97
2023-12-12T20:52:19.071Z,101292.34
2023-12-12T20:54:46.747Z,101296.97
2023-12-12T20:57:17.363Z,101285.03
2023-12-12T20:59:44.708Z,101289.19
2023-12-12T21:02:12.131Z,101284.34
2023-12-12T21:04:42.559Z,101281.44
2023-12-12T21:07:11.184Z,101277.09
2023-12-12T21:09:38.537Z,101275.94
2023-12-12T21:12:06.035Z,101275.47
2023-12-12T21:14:33.414Z,101280.78
2023-12-12T21:17:03.487Z,101278.66
2023-12-12T21:19:31.381Z,101275.13
2023-12-12T21:21:58.751Z,101270.56
2023-12-12T21:24:26.178Z,101274.41
2023-12-12T21:26:53.600Z,101277.47
2023-12-12T21:29:21.012Z,101266.31
2023-12-12T21:31:48.556Z,101269.38
2023-12-12T21:34:16.122Z,101261.47
2023-12-12T21:36:43.511Z,101258.56
2023-12-12T21:39:10.913Z,101251.78
2023-12-12T21:41:41.745Z,101245.31
2023-12-12T21:44:09.180Z,101248.38
2023-12-12T21:46:36.744Z,101247.66
2023-12-12T21:49:04.298Z,101242.97
2023-12-12T21:51:31.639Z,101231.84
2023-12-12T21:53:58.986Z,101222.22
2023-12-12T21:56:26.310Z,101213.91
2023-12-12T21:58:57.156Z,101217.59
2023-12-12T22:01:25.836Z,101212.16
2023-12-12T22:03:53.249Z,101206.22
2023-12-12T22:06:20.505Z,101200.59
2023-12-12T22:08:47.864Z,101201.09
2023-12-12T22:11:16.500Z,101196.19
2023-12-12T22:13:44.746Z,101192.41
2023-12-12T22:16:26.150Z,101176.84
2023-12-12T22:18:57.600Z,101187.97
2023-12-12T22:21:28.403Z,101179.19
2023-12-12T22:23:56.441Z,101175.81
2023-12-12T22:26:24.203Z,101169.31
2023-12-12T22:28:52.700Z,101170.53
2023-12-12T22:31:19.995Z,101170.09
2023-12-12T22:33:47.410Z,101176.78
2023-12-12T22:36:21.004Z,101177.28
2023-12-12T22:38:49.982Z,101173.06
2023-12-12T22:41:21.493Z,101177.00
2023-12-12T22:43:49.891Z,101177.41
2023-12-12T22:46:21.148Z,101175.13
2023-12-12T22:48:49.880Z,101169.38
2023-12-12T22:51:20.060Z,101165.44
2023-12-12T22:53:47.511Z,101159.97
2023-12-12T22:56:15.485Z,101148.84
2023-12-12T22:58:43.301Z,101152.16
2023-12-12T23:01:14.217Z,101148.63
2023-12-12T23:03:41.529Z,101147.88
2023-12-12T23:06:09.261Z,101142.94
2023-12-12T23:08:36.786Z,101141.50
2023-12-12T23:11:04.726Z,101140.72
2023-12-12T23:13:32.005Z,101136.53
2023-12-12T23:15:59.584Z,101133.50
2023-12-12T23:18:26.979Z,101122.25
2023-12-12T23:20:56.499Z,101126.91
2023-12-12T23:23:24.477Z,101110.72
2023-12-12T23:25:51.884Z,101118.81
2023-12-12T23:28:19.394Z,101126.06
2023-12-12T23:31:00.516Z,101122.72
2023-12-12T23:33:35.083Z,101112.50
2023-12-12T23:36:02.517Z,101116.53
2023-12-12T23:38:29.923Z,101112.69
2023-12-12T23:40:57.300Z,101120.38
2023-12-12T23:43:24.688Z,101114.72
2023-12-12T23:45:52.157Z,101110.03
2023-12-12T23:48:19.755Z,101104.84
2023-12-12T23:50:47.189Z,101103.59
2023-12-12T23:53:14.447Z,101093.69
2023-12-12T23:55:42.415Z,101104.63
2023-12-12T23:58:09.817Z,101100.00
